sensor_id;sensor_type;location;lat;lon;timestamp;P1;durP1;ratioP1;P2;durP2;ratioP2
64653;SDS011;51065;48.884;12.598;2023-02-19T00:01:09;5.40;;;2.35;;
64653;SDS011;51065;48.884;12.598;2023-02-19T00:03:36;3.90;;;2.35;;
64653;SDS011;51065;48.884;12.598;2023-02-19T00:06:03;6.32;;;2.70;;
64653;SDS011;51065;48.884;12.598;2023-02-19T00:08:31;6.03;;;2.40;;
64653;SDS011;51065;48.884;12.598;2023-02-19T00:11:05;5.65;;;2.10;;
64653;SDS011;51065;48.884;12.598;2023-02-19T00:13:36;5.10;;;2.55;;
64653;SDS011;51065;48.884;12.598;2023-02-19T00:16:07;4.22;;;2.53;;
64653;SDS011;51065;48.884;12.598;2023-02-19T00:18:34;6.65;;;2.88;;
64653;SDS011;51065;48.884;12.598;2023-02-19T00:21:00;5.95;;;2.65;;
64653;SDS011;51065;48.884;12.598;2023-02-19T00:23:26;4.28;;;2.38;;
64653;SDS011;51065;48.884;12.598;2023-02-19T00:25:52;5.28;;;2.42;;
64653;SDS011;51065;48.884;12.598;2023-02-19T00:28:18;6.47;;;2.70;;
64653;SDS011;51065;48.884;12.598;2023-02-19T00:30:43;5.03;;;2.45;;
64653;SDS011;51065;48.884;12.598;2023-02-19T00:33:09;4.90;;;2.72;;
64653;SDS011;51065;48.884;12.598;2023-02-19T00:35:34;5.10;;;2.58;;
64653;SDS011;51065;48.884;12.598;2023-02-19T00:38:00;5.63;;;2.65;;
64653;SDS011;51065;48.884;12.598;2023-02-19T00:40:26;5.07;;;2.40;;
64653;SDS011;51065;48.884;12.598;2023-02-19T00:42:51;3.78;;;1.98;;
64653;SDS011;51065;48.884;12.598;2023-02-19T00:45:17;7.93;;;2.40;;
64653;SDS011;51065;48.884;12.598;2023-02-19T00:47:43;3.08;;;1.70;;
64653;SDS011;51065;48.884;12.598;2023-02-19T00:50:08;3.17;;;1.80;;
64653;SDS011;51065;48.884;12.598;2023-02-19T00:52:34;4.22;;;2.20;;
64653;SDS011;51065;48.884;12.598;2023-02-19T00:54:59;4.63;;;2.20;;
64653;SDS011;51065;48.884;12.598;2023-02-19T00:57:25;3.50;;;1.80;;
64653;SDS011;51065;48.884;12.598;2023-02-19T00:59:51;4.47;;;1.70;;
64653;SDS011;51065;48.884;12.598;2023-02-19T01:02:16;2.83;;;1.52;;
64653;SDS011;51065;48.884;12.598;2023-02-19T01:04:42;2.95;;;1.50;;
64653;SDS011;51065;48.884;12.598;2023-02-19T01:07:08;2.15;;;1.30;;
64653;SDS011;51065;48.884;12.598;2023-02-19T01:09:34;3.47;;;1.60;;
64653;SDS011;51065;48.884;12.598;2023-02-19T01:11:59;3.10;;;1.27;;
64653;SDS011;51065;48.884;12.598;2023-02-19T01:14:25;4.22;;;1.60;;
64653;SDS011;51065;48.884;12.598;2023-02-19T01:16:50;1.80;;;1.10;;
64653;SDS011;51065;48.884;12.598;2023-02-19T01:19:16;2.55;;;1.38;;
64653;SDS011;51065;48.884;12.598;2023-02-19T01:21:41;3.33;;;1.38;;
64653;SDS011;51065;48.884;12.598;2023-02-19T01:24:07;1.52;;;1.08;;
64653;SDS011;51065;48.884;12.598;2023-02-19T01:26:33;3.30;;;1.58;;
64653;SDS011;51065;48.884;12.598;2023-02-19T01:28:59;2.38;;;1.27;;
64653;SDS011;51065;48.884;12.598;2023-02-19T01:31:25;2.72;;;1.40;;
64653;SDS011;51065;48.884;12.598;2023-02-19T01:33:51;1.85;;;1.30;;
64653;SDS011;51065;48.884;12.598;2023-02-19T01:36:19;2.63;;;1.23;;
64653;SDS011;51065;48.884;12.598;2023-02-19T01:38:44;2.63;;;1.50;;
64653;SDS011;51065;48.884;12.598;2023-02-19T01:41:11;2.65;;;1.48;;
64653;SDS011;51065;48.884;12.598;2023-02-19T01:46:38;4.13;;;1.88;;
64653;SDS011;51065;48.884;12.598;2023-02-19T01:52:03;3.60;;;1.70;;
64653;SDS011;51065;48.884;12.598;2023-02-19T01:54:35;4.10;;;1.77;;
64653;SDS011;51065;48.884;12.598;2023-02-19T01:57:06;2.75;;;1.60;;
64653;SDS011;51065;48.884;12.598;2023-02-19T01:59:37;2.75;;;1.40;;
64653;SDS011;51065;48.884;12.598;2023-02-19T02:02:03;3.40;;;1.60;;
64653;SDS011;51065;48.884;12.598;2023-02-19T02:04:30;3.42;;;1.60;;
64653;SDS011;51065;48.884;12.598;2023-02-19T02:06:57;1.88;;;1.23;;
64653;SDS011;51065;48.884;12.598;2023-02-19T02:09:25;1.92;;;1.30;;
64653;SDS011;51065;48.884;12.598;2023-02-19T02:12:11;4.55;;;1.90;;
64653;SDS011;51065;48.884;12.598;2023-02-19T02:14:37;2.60;;;1.77;;
64653;SDS011;51065;48.884;12.598;2023-02-19T02:20:00;3.17;;;1.85;;
64653;SDS011;51065;48.884;12.598;2023-02-19T02:25:26;2.95;;;1.60;;
64653;SDS011;51065;48.884;12.598;2023-02-19T02:36:18;3.22;;;1.90;;
64653;SDS011;51065;48.884;12.598;2023-02-19T02:41:14;2.90;;;1.70;;
64653;SDS011;51065;48.884;12.598;2023-02-19T02:43:40;5.95;;;2.53;;
64653;SDS011;51065;48.884;12.598;2023-02-19T02:46:09;3.83;;;2.30;;
64653;SDS011;51065;48.884;12.598;2023-02-19T02:48:48;4.05;;;2.50;;
64653;SDS011;51065;48.884;12.598;2023-02-19T02:51:20;5.00;;;2.03;;
64653;SDS011;51065;48.884;12.598;2023-02-19T02:54:17;3.00;;;1.92;;
64653;SDS011;51065;48.884;12.598;2023-02-19T02:57:06;4.45;;;2.20;;
64653;SDS011;51065;48.884;12.598;2023-02-19T02:59:34;3.55;;;1.90;;
64653;SDS011;51065;48.884;12.598;2023-02-19T03:02:03;4.60;;;1.77;;
64653;SDS011;51065;48.884;12.598;2023-02-19T03:04:45;4.30;;;2.17;;
64653;SDS011;51065;48.884;12.598;2023-02-19T03:08:09;4.25;;;2.45;;
64653;SDS011;51065;48.884;12.598;2023-02-19T03:13:21;5.20;;;2.72;;
64653;SDS011;51065;48.884;12.598;2023-02-19T03:16:17;6.60;;;2.95;;
64653;SDS011;51065;48.884;12.598;2023-02-19T03:19:05;4.75;;;2.78;;
64653;SDS011;51065;48.884;12.598;2023-02-19T03:21:55;6.72;;;3.13;;
64653;SDS011;51065;48.884;12.598;2023-02-19T03:24:36;8.00;;;3.50;;
64653;SDS011;51065;48.884;12.598;2023-02-19T03:27:23;6.50;;;3.10;;
64653;SDS011;51065;48.884;12.598;2023-02-19T03:29:52;8.10;;;3.45;;
64653;SDS011;51065;48.884;12.598;2023-02-19T03:32:23;8.65;;;3.70;;
64653;SDS011;51065;48.884;12.598;2023-02-19T03:34:56;7.68;;;3.92;;
64653;SDS011;51065;48.884;12.598;2023-02-19T03:38:09;6.10;;;3.35;;
64653;SDS011;51065;48.884;12.598;2023-02-19T03:40:21;7.20;;;3.30;;
64653;SDS011;51065;48.884;12.598;2023-02-19T03:53:11;5.82;;;3.20;;
64653;SDS011;51065;48.884;12.598;2023-02-19T04:01:19;7.45;;;3.58;;
64653;SDS011;51065;48.884;12.598;2023-02-19T04:06:21;7.57;;;3.25;;
64653;SDS011;51065;48.884;12.598;2023-02-19T04:08:51;6.90;;;3.40;;
64653;SDS011;51065;48.884;12.598;2023-02-19T04:11:19;6.20;;;3.33;;
64653;SDS011;51065;48.884;12.598;2023-02-19T04:13:48;7.50;;;3.88;;
64653;SDS011;51065;48.884;12.598;2023-02-19T04:16:34;6.90;;;3.42;;
64653;SDS011;51065;48.884;12.598;2023-02-19T04:19:06;7.60;;;3.40;;
64653;SDS011;51065;48.884;12.598;2023-02-19T04:21:35;8.80;;;3.28;;
64653;SDS011;51065;48.884;12.598;2023-02-19T04:24:03;6.85;;;3.33;;
64653;SDS011;51065;48.884;12.598;2023-02-19T04:26:33;7.32;;;3.78;;
64653;SDS011;51065;48.884;12.598;2023-02-19T04:28:59;8.63;;;3.42;;
64653;SDS011;51065;48.884;12.598;2023-02-19T04:31:25;7.00;;;3.55;;
64653;SDS011;51065;48.884;12.598;2023-02-19T04:33:53;7.97;;;3.65;;
64653;SDS011;51065;48.884;12.598;2023-02-19T04:36:19;6.28;;;3.40;;
64653;SDS011;51065;48.884;12.598;2023-02-19T04:38:44;8.43;;;3.38;;
64653;SDS011;51065;48.884;12.598;2023-02-19T04:41:10;5.57;;;3.33;;
64653;SDS011;51065;48.884;12.598;2023-02-19T04:43:35;6.63;;;3.05;;
64653;SDS011;51065;48.884;12.598;2023-02-19T04:46:01;7.05;;;3.17;;
64653;SDS011;51065;48.884;12.598;2023-02-19T04:48:27;7.10;;;3.22;;
64653;SDS011;51065;48.884;12.598;2023-02-19T04:50:52;6.53;;;3.30;;
64653;SDS011;51065;48.884;12.598;2023-02-19T04:53:18;6.30;;;3.25;;
64653;SDS011;51065;48.884;12.598;2023-02-19T04:55:44;6.15;;;3.17;;
64653;SDS011;51065;48.884;12.598;2023-02-19T04:58:09;8.20;;;3.50;;
64653;SDS011;51065;48.884;12.598;2023-02-19T05:00:35;10.18;;;3.53;;
64653;SDS011;51065;48.884;12.598;2023-02-19T05:03:00;9.70;;;3.85;;
64653;SDS011;51065;48.884;12.598;2023-02-19T05:05:26;6.97;;;3.47;;
64653;SDS011;51065;48.884;12.598;2023-02-19T05:07:52;6.97;;;3.58;;
64653;SDS011;51065;48.884;12.598;2023-02-19T05:10:18;6.60;;;3.35;;
64653;SDS011;51065;48.884;12.598;2023-02-19T05:12:43;10.02;;;4.13;;
64653;SDS011;51065;48.884;12.598;2023-02-19T05:15:09;5.93;;;3.67;;
64653;SDS011;51065;48.884;12.598;2023-02-19T05:17:34;7.80;;;3.78;;
64653;SDS011;51065;48.884;12.598;2023-02-19T05:20:00;6.85;;;3.67;;
64653;SDS011;51065;48.884;12.598;2023-02-19T05:22:27;5.00;;;3.15;;
64653;SDS011;51065;48.884;12.598;2023-02-19T05:24:53;6.50;;;3.45;;
64653;SDS011;51065;48.884;12.598;2023-02-19T05:27:19;7.57;;;3.45;;
64653;SDS011;51065;48.884;12.598;2023-02-19T05:29:44;5.28;;;3.17;;
64653;SDS011;51065;48.884;12.598;2023-02-19T05:32:10;5.40;;;3.15;;
64653;SDS011;51065;48.884;12.598;2023-02-19T05:34:35;6.55;;;3.30;;
64653;SDS011;51065;48.884;12.598;2023-02-19T05:37:01;7.13;;;3.05;;
64653;SDS011;51065;48.884;12.598;2023-02-19T05:39:26;7.13;;;2.92;;
64653;SDS011;51065;48.884;12.598;2023-02-19T05:41:52;6.32;;;3.30;;
64653;SDS011;51065;48.884;12.598;2023-02-19T05:44:17;5.43;;;3.00;;
64653;SDS011;51065;48.884;12.598;2023-02-19T05:46:43;5.47;;;2.97;;
64653;SDS011;51065;48.884;12.598;2023-02-19T05:49:08;5.88;;;3.17;;
64653;SDS011;51065;48.884;12.598;2023-02-19T05:51:34;6.28;;;2.78;;
64653;SDS011;51065;48.884;12.598;2023-02-19T05:53:59;5.60;;;2.78;;
64653;SDS011;51065;48.884;12.598;2023-02-19T05:56:26;5.15;;;2.70;;
64653;SDS011;51065;48.884;12.598;2023-02-19T05:58:57;6.22;;;3.00;;
64653;SDS011;51065;48.884;12.598;2023-02-19T06:01:25;4.70;;;2.38;;
64653;SDS011;51065;48.884;12.598;2023-02-19T06:03:52;4.78;;;2.38;;
64653;SDS011;51065;48.884;12.598;2023-02-19T06:06:20;4.57;;;2.35;;
64653;SDS011;51065;48.884;12.598;2023-02-19T06:08:47;5.53;;;2.55;;
64653;SDS011;51065;48.884;12.598;2023-02-19T06:11:14;4.35;;;2.22;;
64653;SDS011;51065;48.884;12.598;2023-02-19T06:13:40;4.40;;;2.50;;
64653;SDS011;51065;48.884;12.598;2023-02-19T06:16:06;3.80;;;2.63;;
64653;SDS011;51065;48.884;12.598;2023-02-19T06:18:32;5.60;;;2.40;;
64653;SDS011;51065;48.884;12.598;2023-02-19T06:20:59;4.10;;;2.30;;
64653;SDS011;51065;48.884;12.598;2023-02-19T06:23:29;3.17;;;1.83;;
64653;SDS011;51065;48.884;12.598;2023-02-19T06:28:53;3.47;;;1.92;;
64653;SDS011;51065;48.884;12.598;2023-02-19T06:31:19;4.45;;;2.10;;
64653;SDS011;51065;48.884;12.598;2023-02-19T06:33:46;2.80;;;1.83;;
64653;SDS011;51065;48.884;12.598;2023-02-19T06:36:13;2.78;;;1.80;;
64653;SDS011;51065;48.884;12.598;2023-02-19T06:38:41;2.28;;;1.42;;
64653;SDS011;51065;48.884;12.598;2023-02-19T06:41:07;2.38;;;1.60;;
64653;SDS011;51065;48.884;12.598;2023-02-19T06:43:33;2.45;;;1.70;;
64653;SDS011;51065;48.884;12.598;2023-02-19T06:46:00;4.55;;;1.48;;
64653;SDS011;51065;48.884;12.598;2023-02-19T06:48:27;2.65;;;1.40;;
64653;SDS011;51065;48.884;12.598;2023-02-19T06:50:55;4.47;;;1.40;;
64653;SDS011;51065;48.884;12.598;2023-02-19T06:53:21;2.53;;;1.38;;
64653;SDS011;51065;48.884;12.598;2023-02-19T06:55:57;2.58;;;0.98;;
64653;SDS011;51065;48.884;12.598;2023-02-19T06:58:24;0.90;;;0.80;;
64653;SDS011;51065;48.884;12.598;2023-02-19T07:00:49;1.02;;;0.73;;
64653;SDS011;51065;48.884;12.598;2023-02-19T07:03:15;3.15;;;0.60;;
64653;SDS011;51065;48.884;12.598;2023-02-19T07:05:41;0.73;;;0.57;;
64653;SDS011;51065;48.884;12.598;2023-02-19T07:08:07;2.42;;;0.65;;
64653;SDS011;51065;48.884;12.598;2023-02-19T07:10:33;0.75;;;0.40;;
64653;SDS011;51065;48.884;12.598;2023-02-19T07:12:59;0.75;;;0.43;;
64653;SDS011;51065;48.884;12.598;2023-02-19T07:15:24;1.52;;;0.60;;
64653;SDS011;51065;48.884;12.598;2023-02-19T07:17:50;0.65;;;0.43;;
64653;SDS011;51065;48.884;12.598;2023-02-19T07:20:15;1.48;;;0.40;;
64653;SDS011;51065;48.884;12.598;2023-02-19T07:22:41;0.50;;;0.45;;
64653;SDS011;51065;48.884;12.598;2023-02-19T07:25:06;1.52;;;0.60;;
64653;SDS011;51065;48.884;12.598;2023-02-19T07:27:32;2.28;;;0.43;;
64653;SDS011;51065;48.884;12.598;2023-02-19T07:29:58;0.63;;;0.50;;
64653;SDS011;51065;48.884;12.598;2023-02-19T07:32:23;1.10;;;0.40;;
64653;SDS011;51065;48.884;12.598;2023-02-19T07:34:49;1.48;;;0.70;;
64653;SDS011;51065;48.884;12.598;2023-02-19T07:37:17;1.05;;;0.55;;
64653;SDS011;51065;48.884;12.598;2023-02-19T07:39:43;0.57;;;0.40;;
64653;SDS011;51065;48.884;12.598;2023-02-19T07:42:09;2.85;;;0.50;;
64653;SDS011;51065;48.884;12.598;2023-02-19T07:44:34;1.50;;;0.60;;
64653;SDS011;51065;48.884;12.598;2023-02-19T07:47:00;0.95;;;0.55;;
64653;SDS011;51065;48.884;12.598;2023-02-19T07:49:25;0.98;;;0.40;;
64653;SDS011;51065;48.884;12.598;2023-02-19T07:51:51;1.13;;;0.65;;
64653;SDS011;51065;48.884;12.598;2023-02-19T07:54:16;0.93;;;0.47;;
64653;SDS011;51065;48.884;12.598;2023-02-19T07:56:42;1.00;;;0.55;;
64653;SDS011;51065;48.884;12.598;2023-02-19T07:59:07;1.55;;;0.70;;
64653;SDS011;51065;48.884;12.598;2023-02-19T08:01:33;1.70;;;0.80;;
64653;SDS011;51065;48.884;12.598;2023-02-19T08:04:18;0.90;;;0.60;;
64653;SDS011;51065;48.884;12.598;2023-02-19T08:06:43;2.10;;;0.60;;
64653;SDS011;51065;48.884;12.598;2023-02-19T08:09:09;1.27;;;0.60;;
64653;SDS011;51065;48.884;12.598;2023-02-19T08:11:35;0.70;;;0.50;;
64653;SDS011;51065;48.884;12.598;2023-02-19T08:14:22;1.10;;;0.45;;
64653;SDS011;51065;48.884;12.598;2023-02-19T08:16:49;1.30;;;0.70;;
64653;SDS011;51065;48.884;12.598;2023-02-19T08:19:15;1.27;;;0.63;;
64653;SDS011;51065;48.884;12.598;2023-02-19T08:21:41;1.15;;;0.85;;
64653;SDS011;51065;48.884;12.598;2023-02-19T08:24:07;1.10;;;0.68;;
64653;SDS011;51065;48.884;12.598;2023-02-19T08:26:32;2.50;;;0.77;;
64653;SDS011;51065;48.884;12.598;2023-02-19T08:28:58;2.10;;;0.80;;
64653;SDS011;51065;48.884;12.598;2023-02-19T08:31:23;0.63;;;0.50;;
64653;SDS011;51065;48.884;12.598;2023-02-19T08:33:49;4.43;;;0.85;;
64653;SDS011;51065;48.884;12.598;2023-02-19T08:36:15;2.17;;;0.82;;
64653;SDS011;51065;48.884;12.598;2023-02-19T08:38:40;1.45;;;0.70;;
64653;SDS011;51065;48.884;12.598;2023-02-19T08:41:08;2.25;;;1.00;;
64653;SDS011;51065;48.884;12.598;2023-02-19T08:43:36;1.02;;;0.55;;
64653;SDS011;51065;48.884;12.598;2023-02-19T08:46:01;0.63;;;0.50;;
64653;SDS011;51065;48.884;12.598;2023-02-19T08:48:28;1.50;;;0.60;;
64653;SDS011;51065;48.884;12.598;2023-02-19T08:50:57;1.38;;;0.55;;
64653;SDS011;51065;48.884;12.598;2023-02-19T08:53:28;0.60;;;0.40;;
64653;SDS011;51065;48.884;12.598;2023-02-19T08:55:54;1.23;;;0.55;;
64653;SDS011;51065;48.884;12.598;2023-02-19T08:58:20;1.27;;;1.10;;
64653;SDS011;51065;48.884;12.598;2023-02-19T09:00:46;1.98;;;0.80;;
64653;SDS011;51065;48.884;12.598;2023-02-19T09:03:11;0.95;;;0.55;;
64653;SDS011;51065;48.884;12.598;2023-02-19T09:05:37;2.25;;;0.60;;
64653;SDS011;51065;48.884;12.598;2023-02-19T09:08:03;2.58;;;0.50;;
64653;SDS011;51065;48.884;12.598;2023-02-19T09:10:29;0.50;;;0.30;;
64653;SDS011;51065;48.884;12.598;2023-02-19T09:12:54;1.85;;;0.60;;
64653;SDS011;51065;48.884;12.598;2023-02-19T09:15:20;3.40;;;0.70;;
64653;SDS011;51065;48.884;12.598;2023-02-19T09:17:50;0.70;;;0.45;;
64653;SDS011;51065;48.884;12.598;2023-02-19T09:22:42;0.55;;;0.55;;
64653;SDS011;51065;48.884;12.598;2023-02-19T09:25:07;2.25;;;0.50;;
64653;SDS011;51065;48.884;12.598;2023-02-19T09:27:33;1.95;;;0.60;;
64653;SDS011;51065;48.884;12.598;2023-02-19T09:29:59;0.88;;;0.50;;
64653;SDS011;51065;48.884;12.598;2023-02-19T09:32:24;2.15;;;0.57;;
64653;SDS011;51065;48.884;12.598;2023-02-19T09:34:50;1.60;;;0.60;;
64653;SDS011;51065;48.884;12.598;2023-02-19T09:37:15;0.50;;;0.50;;
64653;SDS011;51065;48.884;12.598;2023-02-19T09:39:41;1.35;;;0.63;;
64653;SDS011;51065;48.884;12.598;2023-02-19T09:42:14;1.90;;;0.90;;
64653;SDS011;51065;48.884;12.598;2023-02-19T09:44:44;0.85;;;0.60;;
64653;SDS011;51065;48.884;12.598;2023-02-19T09:47:17;1.40;;;0.60;;
64653;SDS011;51065;48.884;12.598;2023-02-19T09:49:53;1.13;;;0.50;;
64653;SDS011;51065;48.884;12.598;2023-02-19T09:52:27;0.73;;;0.40;;
64653;SDS011;51065;48.884;12.598;2023-02-19T09:55:02;1.40;;;0.60;;
64653;SDS011;51065;48.884;12.598;2023-02-19T09:57:42;0.50;;;0.50;;
64653;SDS011;51065;48.884;12.598;2023-02-19T10:03:21;1.17;;;0.40;;
64653;SDS011;51065;48.884;12.598;2023-02-19T10:05:47;0.70;;;0.50;;
64653;SDS011;51065;48.884;12.598;2023-02-19T10:08:14;2.10;;;0.45;;
64653;SDS011;51065;48.884;12.598;2023-02-19T10:10:43;3.30;;;0.70;;
64653;SDS011;51065;48.884;12.598;2023-02-19T10:13:16;1.92;;;0.40;;
64653;SDS011;51065;48.884;12.598;2023-02-19T10:15:45;0.80;;;0.40;;
64653;SDS011;51065;48.884;12.598;2023-02-19T10:18:16;0.57;;;0.38;;
64653;SDS011;51065;48.884;12.598;2023-02-19T10:20:44;2.88;;;0.45;;
64653;SDS011;51065;48.884;12.598;2023-02-19T10:23:12;0.40;;;0.30;;
64653;SDS011;51065;48.884;12.598;2023-02-19T10:25:41;1.30;;;0.60;;
64653;SDS011;51065;48.884;12.598;2023-02-19T10:28:16;0.88;;;0.55;;
64653;SDS011;51065;48.884;12.598;2023-02-19T10:30:44;0.47;;;0.47;;
64653;SDS011;51065;48.884;12.598;2023-02-19T10:33:16;2.05;;;0.80;;
64653;SDS011;51065;48.884;12.598;2023-02-19T10:38:23;4.38;;;0.73;;
64653;SDS011;51065;48.884;12.598;2023-02-19T10:41:03;0.73;;;0.50;;
64653;SDS011;51065;48.884;12.598;2023-02-19T10:43:35;1.15;;;0.60;;
64653;SDS011;51065;48.884;12.598;2023-02-19T10:46:21;3.30;;;0.75;;
64653;SDS011;51065;48.884;12.598;2023-02-19T10:48:56;2.15;;;0.60;;
64653;SDS011;51065;48.884;12.598;2023-02-19T10:51:34;1.02;;;0.55;;
64653;SDS011;51065;48.884;12.598;2023-02-19T10:56:41;1.00;;;0.70;;
64653;SDS011;51065;48.884;12.598;2023-02-19T10:59:26;2.47;;;0.90;;
64653;SDS011;51065;48.884;12.598;2023-02-19T11:04:26;1.35;;;0.90;;
64653;SDS011;51065;48.884;12.598;2023-02-19T11:06:53;1.60;;;0.70;;
64653;SDS011;51065;48.884;12.598;2023-02-19T11:09:31;2.33;;;0.80;;
64653;SDS011;51065;48.884;12.598;2023-02-19T11:12:06;2.90;;;0.75;;
64653;SDS011;51065;48.884;12.598;2023-02-19T11:14:33;1.65;;;0.60;;
64653;SDS011;51065;48.884;12.598;2023-02-19T11:16:59;1.95;;;0.88;;
64653;SDS011;51065;48.884;12.598;2023-02-19T11:21:57;1.27;;;0.70;;
64653;SDS011;51065;48.884;12.598;2023-02-19T11:24:27;1.85;;;0.98;;
64653;SDS011;51065;48.884;12.598;2023-02-19T11:26:57;1.13;;;0.88;;
64653;SDS011;51065;48.884;12.598;2023-02-19T11:29:24;2.15;;;0.88;;
64653;SDS011;51065;48.884;12.598;2023-02-19T11:31:52;1.35;;;0.80;;
64653;SDS011;51065;48.884;12.598;2023-02-19T11:36:53;1.77;;;0.70;;
64653;SDS011;51065;48.884;12.598;2023-02-19T11:39:39;2.42;;;0.95;;
64653;SDS011;51065;48.884;12.598;2023-02-19T11:45:08;2.63;;;1.17;;
64653;SDS011;51065;48.884;12.598;2023-02-19T11:55:58;2.78;;;1.05;;
64653;SDS011;51065;48.884;12.598;2023-02-19T11:58:43;1.80;;;0.88;;
64653;SDS011;51065;48.884;12.598;2023-02-19T12:20:33;2.53;;;0.65;;
64653;SDS011;51065;48.884;12.598;2023-02-19T12:31:33;1.67;;;0.82;;
64653;SDS011;51065;48.884;12.598;2023-02-19T12:34:23;3.17;;;0.80;;
64653;SDS011;51065;48.884;12.598;2023-02-19T12:45:29;2.92;;;1.00;;
64653;SDS011;51065;48.884;12.598;2023-02-19T12:51:06;2.95;;;1.52;;
64653;SDS011;51065;48.884;12.598;2023-02-19T12:54:00;3.80;;;1.02;;
64653;SDS011;51065;48.884;12.598;2023-02-19T12:56:35;1.80;;;0.88;;
64653;SDS011;51065;48.884;12.598;2023-02-19T12:59:11;1.92;;;0.80;;
64653;SDS011;51065;48.884;12.598;2023-02-19T13:02:11;1.30;;;0.70;;
64653;SDS011;51065;48.884;12.598;2023-02-19T13:07:57;2.72;;;1.10;;
64653;SDS011;51065;48.884;12.598;2023-02-19T13:12:59;5.68;;;1.25;;
64653;SDS011;51065;48.884;12.598;2023-02-19T13:15:32;3.75;;;1.17;;
64653;SDS011;51065;48.884;12.598;2023-02-19T13:17:59;2.60;;;0.90;;
64653;SDS011;51065;48.884;12.598;2023-02-19T13:20:36;1.92;;;0.95;;
64653;SDS011;51065;48.884;12.598;2023-02-19T13:32:01;2.03;;;1.23;;
64653;SDS011;51065;48.884;12.598;2023-02-19T13:37:13;2.40;;;1.17;;
64653;SDS011;51065;48.884;12.598;2023-02-19T13:40:17;2.92;;;1.30;;
64653;SDS011;51065;48.884;12.598;2023-02-19T13:43:51;3.30;;;1.30;;
64653;SDS011;51065;48.884;12.598;2023-02-19T13:45:52;4.05;;;0.80;;
64653;SDS011;51065;48.884;12.598;2023-02-19T13:48:46;2.95;;;1.10;;
64653;SDS011;51065;48.884;12.598;2023-02-19T14:04:24;4.30;;;1.52;;
64653;SDS011;51065;48.884;12.598;2023-02-19T14:15:01;1.23;;;0.93;;
64653;SDS011;51065;48.884;12.598;2023-02-19T14:17:39;3.20;;;0.90;;
64653;SDS011;51065;48.884;12.598;2023-02-19T14:33:35;3.65;;;1.10;;
64653;SDS011;51065;48.884;12.598;2023-02-19T14:36:05;3.97;;;1.30;;
64653;SDS011;51065;48.884;12.598;2023-02-19T14:38:38;1.70;;;0.90;;
64653;SDS011;51065;48.884;12.598;2023-02-19T14:41:13;2.05;;;0.98;;
64653;SDS011;51065;48.884;12.598;2023-02-19T14:43:39;3.42;;;1.20;;
64653;SDS011;51065;48.884;12.598;2023-02-19T14:46:07;4.97;;;1.20;;
64653;SDS011;51065;48.884;12.598;2023-02-19T14:48:44;3.83;;;1.27;;
64653;SDS011;51065;48.884;12.598;2023-02-19T14:51:29;3.35;;;1.05;;
64653;SDS011;51065;48.884;12.598;2023-02-19T14:53:59;2.88;;;0.90;;
64653;SDS011;51065;48.884;12.598;2023-02-19T14:56:34;3.13;;;1.10;;
64653;SDS011;51065;48.884;12.598;2023-02-19T15:01:32;2.60;;;0.80;;
64653;SDS011;51065;48.884;12.598;2023-02-19T15:03:57;2.53;;;0.80;;
64653;SDS011;51065;48.884;12.598;2023-02-19T15:06:23;3.58;;;0.95;;
64653;SDS011;51065;48.884;12.598;2023-02-19T15:08:52;1.08;;;0.60;;
64653;SDS011;51065;48.884;12.598;2023-02-19T15:11:22;2.60;;;1.10;;
64653;SDS011;51065;48.884;12.598;2023-02-19T15:13:51;3.78;;;0.75;;
64653;SDS011;51065;48.884;12.598;2023-02-19T15:16:29;2.53;;;0.75;;
64653;SDS011;51065;48.884;12.598;2023-02-19T15:18:58;1.52;;;0.75;;
64653;SDS011;51065;48.884;12.598;2023-02-19T15:21:28;1.83;;;1.00;;
64653;SDS011;51065;48.884;12.598;2023-02-19T15:23:57;1.88;;;1.05;;
64653;SDS011;51065;48.884;12.598;2023-02-19T15:26:39;3.38;;;0.88;;
64653;SDS011;51065;48.884;12.598;2023-02-19T15:29:11;3.17;;;1.20;;
64653;SDS011;51065;48.884;12.598;2023-02-19T15:31:45;4.38;;;1.58;;
64653;SDS011;51065;48.884;12.598;2023-02-19T15:34:23;1.65;;;0.90;;
64653;SDS011;51065;48.884;12.598;2023-02-19T15:36:55;1.77;;;0.98;;
64653;SDS011;51065;48.884;12.598;2023-02-19T15:39:36;3.92;;;1.30;;
64653;SDS011;51065;48.884;12.598;2023-02-19T15:42:04;2.33;;;1.10;;
64653;SDS011;51065;48.884;12.598;2023-02-19T15:47:06;1.92;;;1.20;;
64653;SDS011;51065;48.884;12.598;2023-02-19T15:49:41;3.15;;;1.10;;
64653;SDS011;51065;48.884;12.598;2023-02-19T15:52:20;2.42;;;1.17;;
64653;SDS011;51065;48.884;12.598;2023-02-19T15:58:25;2.00;;;0.90;;
64653;SDS011;51065;48.884;12.598;2023-02-19T16:00:58;2.42;;;1.40;;
64653;SDS011;51065;48.884;12.598;2023-02-19T16:03:26;3.65;;;1.38;;
64653;SDS011;51065;48.884;12.598;2023-02-19T16:06:07;4.18;;;1.48;;
64653;SDS011;51065;48.884;12.598;2023-02-19T16:08:44;3.25;;;1.02;;
64653;SDS011;51065;48.884;12.598;2023-02-19T16:13:48;4.38;;;1.73;;
64653;SDS011;51065;48.884;12.598;2023-02-19T16:18:49;4.90;;;1.77;;
64653;SDS011;51065;48.884;12.598;2023-02-19T16:21:19;4.38;;;1.75;;
64653;SDS011;51065;48.884;12.598;2023-02-19T16:23:47;3.60;;;1.50;;
64653;SDS011;51065;48.884;12.598;2023-02-19T16:26:15;4.05;;;1.60;;
64653;SDS011;51065;48.884;12.598;2023-02-19T16:28:42;3.13;;;1.35;;
64653;SDS011;51065;48.884;12.598;2023-02-19T16:31:08;5.28;;;1.60;;
64653;SDS011;51065;48.884;12.598;2023-02-19T16:33:40;2.80;;;1.70;;
64653;SDS011;51065;48.884;12.598;2023-02-19T16:36:53;3.47;;;1.60;;
64653;SDS011;51065;48.884;12.598;2023-02-19T16:41:33;4.30;;;1.80;;
64653;SDS011;51065;48.884;12.598;2023-02-19T16:46:44;5.72;;;1.80;;
64653;SDS011;51065;48.884;12.598;2023-02-19T16:49:14;2.53;;;1.52;;
64653;SDS011;51065;48.884;12.598;2023-02-19T16:51:39;5.32;;;1.83;;
64653;SDS011;51065;48.884;12.598;2023-02-19T16:54:05;3.28;;;1.60;;
64653;SDS011;51065;48.884;12.598;2023-02-19T16:56:31;3.83;;;2.00;;
64653;SDS011;51065;48.884;12.598;2023-02-19T16:58:57;4.88;;;2.20;;
64653;SDS011;51065;48.884;12.598;2023-02-19T17:01:22;4.22;;;1.80;;
64653;SDS011;51065;48.884;12.598;2023-02-19T17:03:48;3.53;;;1.73;;
64653;SDS011;51065;48.884;12.598;2023-02-19T17:06:16;4.35;;;2.03;;
64653;SDS011;51065;48.884;12.598;2023-02-19T17:08:42;5.68;;;1.80;;
64653;SDS011;51065;48.884;12.598;2023-02-19T17:11:09;6.25;;;2.42;;
64653;SDS011;51065;48.884;12.598;2023-02-19T17:13:37;6.68;;;2.40;;
64653;SDS011;51065;48.884;12.598;2023-02-19T17:16:03;4.35;;;1.90;;
64653;SDS011;51065;48.884;12.598;2023-02-19T17:18:29;4.82;;;2.00;;
64653;SDS011;51065;48.884;12.598;2023-02-19T17:21:00;5.55;;;1.95;;
64653;SDS011;51065;48.884;12.598;2023-02-19T17:23:36;6.05;;;2.25;;
64653;SDS011;51065;48.884;12.598;2023-02-19T17:26:02;5.00;;;1.95;;
64653;SDS011;51065;48.884;12.598;2023-02-19T17:28:27;6.22;;;2.25;;
64653;SDS011;51065;48.884;12.598;2023-02-19T17:30:53;7.25;;;2.50;;
64653;SDS011;51065;48.884;12.598;2023-02-19T17:33:18;5.20;;;2.42;;
64653;SDS011;51065;48.884;12.598;2023-02-19T17:35:44;8.02;;;2.45;;
64653;SDS011;51065;48.884;12.598;2023-02-19T17:38:13;5.45;;;1.95;;
64653;SDS011;51065;48.884;12.598;2023-02-19T17:40:38;2.85;;;1.60;;
64653;SDS011;51065;48.884;12.598;2023-02-19T17:43:04;4.75;;;2.28;;
64653;SDS011;51065;48.884;12.598;2023-02-19T17:45:31;4.75;;;2.15;;
64653;SDS011;51065;48.884;12.598;2023-02-19T17:47:56;4.22;;;1.77;;
64653;SDS011;51065;48.884;12.598;2023-02-19T17:50:24;4.95;;;1.70;;
64653;SDS011;51065;48.884;12.598;2023-02-19T17:52:51;6.55;;;2.03;;
64653;SDS011;51065;48.884;12.598;2023-02-19T17:55:17;4.22;;;2.10;;